Time;durP1;ratioP1;P1;durP2;ratioP2;P2;SDS_P1;SDS_P2;PMS_P1;PMS_P2;Temp;Humidity;BMP_temperature;BMP_pressure;BME280_temperature;BME280_humidity;BME280_pressure;Samples;Min_cycle;Max_cycle;Signal;HPM_P1;HPM_P2
2023/06/28 03:17:57;;;;;;;4.90;1.20;;;20.20;64.10;;;;;;6226888;22;93665;-72
2023/06/28 03:20:22;;;;;;;4.57;1.30;;;20.20;63.80;;;;;;6247452;22;92827;-71
2023/06/28 03:22:49;;;;;;;5.38;1.30;;;20.20;64.50;;;;;;6247433;22;92271;-71
2023/06/28 03:25:15;;;;;;;2.90;1.35;;;20.20;63.90;;;;;;6247535;22;92385;-71
2023/06/28 03:27:41;;;;;;;2.33;1.17;;;20.20;63.90;;;;;;6246036;22;94168;-72
2023/06/28 03:30:07;;;;;;;3.63;1.00;;;20.10;63.80;;;;;;6247141;22;93749;-72
2023/06/28 03:32:33;;;;;;;4.95;1.05;;;20.20;64.20;;;;;;6247020;22;92755;-76
2023/06/28 03:34:58;;;;;;;4.72;1.17;;;20.10;63.00;;;;;;6247158;22;92281;-73
2023/06/28 03:37:24;;;;;;;3.53;1.30;;;20.10;62.60;;;;;;6246496;22;93196;-72
2023/06/28 03:39:50;;;;;;;3.88;1.20;;;20.10;63.60;;;;;;6247130;22;92934;-71
2023/06/28 03:42:15;;;;;;;4.60;1.30;;;20.10;63.10;;;;;;6247126;22;91947;-71
2023/06/28 03:44:41;;;;;;;4.90;1.17;;;20.20;63.30;;;;;;6247840;22;91583;-72
2023/06/28 03:47:07;;;;;;;3.17;0.90;;;20.10;63.20;;;;;;6219800;22;94552;-70
2023/06/28 03:49:32;;;;;;;3.60;1.27;;;20.10;62.80;;;;;;6246952;22;93103;-71
2023/06/28 03:51:58;;;;;;;6.05;1.23;;;20.10;62.60;;;;;;6246614;22;93380;-71
2023/06/28 03:54:24;;;;;;;3.80;1.00;;;20.10;63.30;;;;;;6246700;22;92300;-72
2023/06/28 03:56:49;;;;;;;2.20;0.88;;;20.10;62.80;;;;;;6246449;22;93172;-71
2023/06/28 03:59:15;;;;;;;7.75;1.73;;;20.10;62.80;;;;;;6246494;22;93505;-72
2023/06/28 04:01:41;;;;;;;5.22;1.23;;;20.10;63.40;;;;;;6247375;22;92009;-72
2023/06/28 04:04:06;;;;;;;4.70;1.50;;;20.10;64.20;;;;;;6247508;22;92309;-71
2023/06/28 04:06:32;;;;;;;2.60;1.13;;;20.00;64.00;;;;;;6246980;22;92999;-71
2023/06/28 04:08:58;;;;;;;3.45;1.15;;;20.00;64.40;;;;;;6246992;22;92364;-71
2023/06/28 04:11:23;;;;;;;5.47;1.30;;;20.00;64.60;;;;;;6247171;22;92654;-72
2023/06/28 04:13:49;;;;;;;3.92;1.52;;;20.00;66.10;;;;;;6247507;22;92254;-71
2023/06/28 04:16:14;;;;;;;5.88;0.90;;;20.10;66.20;;;;;;6242597;22;93687;-73
2023/06/28 04:18:40;;;;;;;6.05;1.65;;;20.10;66.60;;;;;;6215775;22;93193;-72
2023/06/28 04:21:06;;;;;;;6.78;1.25;;;20.10;65.40;;;;;;6215932;22;92345;-73
2023/06/28 04:23:32;;;;;;;6.63;1.42;;;20.10;65.20;;;;;;6215122;22;92518;-71
2023/06/28 04:25:58;;;;;;;7.13;1.25;;;20.20;65.40;;;;;;6215493;22;93155;-73
2023/06/28 04:28:24;;;;;;;3.95;1.27;;;20.20;65.10;;;;;;6215053;22;92643;-72
2023/06/28 04:30:49;;;;;;;4.07;1.25;;;20.20;64.30;;;;;;6214738;22;92343;-71
2023/06/28 04:33:18;;;;;;;6.43;1.40;;;20.30;64.60;;;;;;6189346;22;91639;-70
2023/06/28 04:35:46;;;;;;;3.97;1.33;;;20.30;65.90;;;;;;6215315;22;92516;-72
2023/06/28 04:38:16;;;;;;;2.92;1.10;;;20.20;66.40;;;;;;6215529;22;92900;-71
2023/06/28 04:40:42;;;;;;;6.30;1.40;;;20.20;67.50;;;;;;6215426;22;92959;-70
2023/06/28 04:43:10;;;;;;;5.55;1.77;;;20.10;67.10;;;;;;6216326;22;92429;-70
2023/06/28 04:45:39;;;;;;;4.93;1.38;;;20.00;66.50;;;;;;6215756;22;92572;-70
2023/06/28 04:48:05;;;;;;;5.55;1.63;;;20.10;66.40;;;;;;6215355;22;92611;-70
2023/06/28 04:50:36;;;;;;;5.90;1.20;;;20.10;68.60;;;;;;6215909;22;92458;-71
2023/06/28 04:53:03;;;;;;;4.20;1.63;;;20.10;67.90;;;;;;6189366;22;92457;-71
2023/06/28 04:55:32;;;;;;;5.60;1.90;;;20.00;67.40;;;;;;6215017;22;92364;-70
2023/06/28 04:57:59;;;;;;;9.88;2.22;;;20.00;67.90;;;;;;6215929;22;91890;-70
2023/06/28 05:00:25;;;;;;;5.35;1.67;;;20.10;69.10;;;;;;6215871;22;92270;-71
2023/06/28 05:02:51;;;;;;;7.15;1.92;;;20.10;69.30;;;;;;6216595;22;92314;-70
2023/06/28 05:05:17;;;;;;;4.15;2.13;;;20.00;67.80;;;;;;6214793;22;93677;-70
2023/06/28 05:07:43;;;;;;;4.65;1.98;;;20.10;67.60;;;;;;6215432;22;93309;-70
2023/06/28 05:10:09;;;;;;;3.83;1.60;;;20.10;68.70;;;;;;6215672;22;92323;-70
2023/06/28 05:12:35;;;;;;;9.70;2.10;;;20.30;67.90;;;;;;6215784;22;92416;-71
2023/06/28 05:15:02;;;;;;;5.90;1.85;;;20.30;67.80;;;;;;6215410;22;93264;-71
2023/06/28 05:17:27;;;;;;;4.40;1.70;;;20.30;68.10;;;;;;6214448;22;93672;-72
2023/06/28 05:19:53;;;;;;;3.53;1.27;;;20.40;68.20;;;;;;6214617;22;92459;-71
2023/06/28 05:22:21;;;;;;;4.78;1.02;;;20.40;67.20;;;;;;6216852;22;91739;-72
2023/06/28 05:24:48;;;;;;;4.45;1.30;;;20.50;67.00;;;;;;6215371;22;92702;-72
2023/06/28 05:27:13;;;;;;;5.43;1.55;;;20.50;67.20;;;;;;6215724;22;93618;-72
2023/06/28 05:29:39;;;;;;;7.40;1.35;;;20.50;68.20;;;;;;6214970;22;93273;-72
2023/06/28 05:32:05;;;;;;;3.30;1.38;;;20.50;67.40;;;;;;6216000;22;92394;-72
2023/06/28 05:34:31;;;;;;;4.03;1.50;;;20.40;67.60;;;;;;6215244;22;96352;-72
2023/06/28 05:36:56;;;;;;;3.40;1.45;;;20.30;67.70;;;;;;6215031;22;92202;-72
2023/06/28 05:39:22;;;;;;;7.70;1.80;;;20.30;67.80;;;;;;6215887;22;92357;-72
2023/06/28 05:41:48;;;;;;;7.03;1.58;;;20.30;67.30;;;;;;6216022;22;92496;-72
2023/06/28 05:44:18;;;;;;;5.85;1.23;;;20.30;66.60;;;;;;6215113;22;92769;-71
2023/06/28 05:46:43;;;;;;;4.00;1.30;;;20.30;66.00;;;;;;6215483;22;92609;-73
2023/06/28 05:49:09;;;;;;;3.20;1.15;;;20.20;65.00;;;;;;6215922;22;92327;-72
2023/06/28 05:51:35;;;;;;;3.75;1.45;;;20.20;65.00;;;;;;6215578;22;92694;-71
2023/06/28 05:54:00;;;;;;;4.65;1.50;;;20.20;65.00;;;;;;6214668;22;94060;-72
2023/06/28 05:56:27;;;;;;;8.52;1.00;;;20.20;65.40;;;;;;6214865;22;93251;-71
2023/06/28 05:58:53;;;;;;;5.60;1.92;;;20.20;65.20;;;;;;6215952;22;92294;-73
2023/06/28 06:01:18;;;;;;;3.90;1.65;;;20.30;65.70;;;;;;6215528;22;92467;-72
2023/06/28 06:03:44;;;;;;;4.43;1.52;;;20.30;65.50;;;;;;6215166;22;93147;-73
2023/06/28 06:06:10;;;;;;;5.53;1.50;;;20.30;65.60;;;;;;6215030;22;93131;-71
2023/06/28 06:08:35;;;;;;;6.45;1.50;;;20.40;66.00;;;;;;6215450;22;92409;-72
2023/06/28 06:11:03;;;;;;;4.78;1.10;;;20.50;66.00;;;;;;6216020;22;91519;-72
2023/06/28 06:13:29;;;;;;;5.88;1.35;;;20.50;65.90;;;;;;6214796;22;92725;-72
2023/06/28 06:15:55;;;;;;;5.45;1.42;;;20.60;65.50;;;;;;6214523;22;92793;-72
2023/06/28 06:18:20;;;;;;;8.38;1.40;;;20.70;65.20;;;;;;6214697;22;93845;-71
2023/06/28 06:20:48;;;;;;;4.47;1.50;;;20.80;64.90;;;;;;6215851;22;92371;-71
2023/06/28 06:23:14;;;;;;;4.85;1.48;;;20.80;65.40;;;;;;6214836;22;94405;-71
2023/06/28 06:25:40;;;;;;;3.45;1.25;;;20.80;65.20;;;;;;6214769;22;93190;-71
2023/06/28 06:28:05;;;;;;;4.93;1.50;;;20.90;66.00;;;;;;6215781;22;92302;-71
2023/06/28 06:30:31;;;;;;;4.82;1.40;;;20.90;66.30;;;;;;6215588;22;92197;-72
2023/06/28 06:32:56;;;;;;;6.75;1.75;;;20.90;65.80;;;;;;6214422;22;92744;-71
2023/06/28 06:35:23;;;;;;;6.65;1.30;;;20.90;65.00;;;;;;6215131;22;91819;-72
2023/06/28 06:37:49;;;;;;;3.63;1.23;;;21.00;64.50;;;;;;6215283;22;92785;-71
2023/06/28 06:40:15;;;;;;;7.65;1.30;;;21.00;63.60;;;;;;6215330;22;92417;-71
2023/06/28 06:42:40;;;;;;;5.57;1.35;;;21.10;63.80;;;;;;6213503;22;94051;-72
2023/06/28 06:45:07;;;;;;;9.18;1.77;;;21.10;62.80;;;;;;6215243;22;93836;-71
2023/06/28 06:47:32;;;;;;;4.97;1.50;;;21.10;62.70;;;;;;6214711;22;92306;-72
2023/06/28 06:49:58;;;;;;;6.22;1.50;;;21.10;59.60;;;;;;6215986;22;92441;-71
2023/06/28 06:52:23;;;;;;;3.60;1.20;;;21.10;61.40;;;;;;6215958;22;92251;-71
2023/06/28 06:54:49;;;;;;;9.95;1.25;;;21.20;59.80;;;;;;6216536;22;92750;-71
2023/06/28 06:57:15;;;;;;;5.13;1.05;;;21.20;58.90;;;;;;6216255;22;92267;-71
2023/06/28 06:59:41;;;;;;;4.95;1.15;;;21.20;59.20;;;;;;6217353;22;91538;-71
2023/06/28 07:02:06;;;;;;;14.80;1.42;;;21.20;59.60;;;;;;6215870;22;93538;-71
2023/06/28 07:04:32;;;;;;;6.55;1.20;;;21.20;58.80;;;;;;6215853;22;92954;-71
2023/06/28 07:06:58;;;;;;;8.13;1.40;;;21.30;58.80;;;;;;6216114;22;93154;-71
2023/06/28 07:09:26;;;;;;;4.75;1.25;;;21.30;58.50;;;;;;6216712;22;92630;-71
2023/06/28 07:11:52;;;;;;;7.50;1.73;;;21.40;59.70;;;;;;6215697;22;93277;-71
2023/06/28 07:14:18;;;;;;;5.38;1.27;;;21.50;59.20;;;;;;6216230;22;92651;-72
2023/06/28 07:16:45;;;;;;;5.10;1.45;;;21.60;60.20;;;;;;6215462;22;92057;-71
2023/06/28 07:19:11;;;;;;;5.85;1.50;;;21.60;60.00;;;;;;6216484;22;92032;-71
2023/06/28 07:21:37;;;;;;;3.30;1.13;;;21.70;60.60;;;;;;6215653;22;92743;-71
2023/06/28 07:24:03;;;;;;;5.10;1.30;;;21.80;60.20;;;;;;6216788;22;92209;-71
2023/06/28 07:26:29;;;;;;;7.40;1.40;;;21.80;58.60;;;;;;6216272;22;92366;-71
2023/06/28 07:28:54;;;;;;;9.70;1.60;;;21.90;58.10;;;;;;6216445;22;92408;-71
2023/06/28 07:31:20;;;;;;;4.93;1.30;;;22.00;58.90;;;;;;6215352;22;94067;-71
2023/06/28 07:33:46;;;;;;;5.18;1.30;;;22.00;59.40;;;;;;6215948;22;94068;-71
2023/06/28 07:36:12;;;;;;;4.53;1.60;;;22.00;59.00;;;;;;6216101;22;92353;-71
2023/06/28 07:38:38;;;;;;;3.22;1.08;;;22.00;57.90;;;;;;6216331;22;92313;-72
2023/06/28 07:41:03;;;;;;;6.97;1.52;;;22.10;57.50;;;;;;6216230;22;93037;-72
2023/06/28 07:43:29;;;;;;;6.28;1.35;;;22.10;58.20;;;;;;6215572;22;92228;-72
2023/06/28 07:45:59;;;;;;;7.63;1.08;;;22.30;57.60;;;;;;6216403;22;92056;-72
2023/06/28 07:48:28;;;;;;;2.80;0.90;;;22.40;58.80;;;;;;6217230;22;91635;-71
2023/06/28 07:50:53;;;;;;;12.05;1.40;;;22.60;55.80;;;;;;6215280;22;93015;-71
2023/06/28 07:53:19;;;;;;;6.93;1.38;;;22.60;56.30;;;;;;6215814;22;93018;-73
2023/06/28 07:55:44;;;;;;;6.80;1.38;;;22.60;57.30;;;;;;6215857;22;93368;-72
2023/06/28 07:58:10;;;;;;;10.25;1.45;;;22.80;56.00;;;;;;6216618;22;92446;-72
2023/06/28 08:00:36;;;;;;;6.88;1.42;;;23.00;55.70;;;;;;6215651;22;92701;-71
2023/06/28 08:03:01;;;;;;;15.48;1.73;;;23.40;57.10;;;;;;6215796;22;92205;-71
2023/06/28 08:05:27;;;;;;;3.20;1.30;;;23.80;55.90;;;;;;6216697;22;92315;-71
2023/06/28 08:07:54;;;;;;;8.90;1.50;;;24.10;54.30;;;;;;6216133;22;91978;-71
2023/06/28 08:10:20;;;;;;;24.23;1.83;;;24.40;53.60;;;;;;6215856;22;92557;-72
2023/06/28 08:12:46;;;;;;;8.05;1.40;;;24.40;52.90;;;;;;6216436;22;92333;-70
2023/06/28 08:15:12;;;;;;;9.25;1.48;;;24.60;53.20;;;;;;6216256;22;92770;-72
2023/06/28 08:17:37;;;;;;;11.20;1.60;;;24.80;52.80;;;;;;6215893;22;92433;-73
2023/06/28 08:20:03;;;;;;;5.95;1.48;;;25.10;52.50;;;;;;6215169;22;93811;-71
2023/06/28 08:22:29;;;;;;;11.07;1.80;;;25.10;54.50;;;;;;6215082;22;93404;-71
2023/06/28 08:24:55;;;;;;;2.80;1.13;;;25.10;52.80;;;;;;6216530;22;92353;-71
2023/06/28 08:27:20;;;;;;;8.55;1.60;;;24.90;51.10;;;;;;6189529;22;92341;-70
2023/06/28 08:29:46;;;;;;;4.22;1.80;;;24.60;51.70;;;;;;6215749;22;92216;-72
2023/06/28 08:32:12;;;;;;;9.32;2.15;;;24.70;52.10;;;;;;6215886;22;92322;-70
2023/06/28 08:34:38;;;;;;;10.88;1.95;;;24.80;51.30;;;;;;6216005;22;92353;-71
2023/06/28 08:37:04;;;;;;;6.65;1.20;;;24.90;52.90;;;;;;6217431;22;91667;-71
2023/06/28 08:39:29;;;;;;;16.02;2.13;;;25.20;52.20;;;;;;6214721;22;92595;-71
2023/06/28 08:41:56;;;;;;;24.77;2.72;;;25.70;51.30;;;;;;6215416;22;92413;-74
2023/06/28 08:44:25;;;;;;;3.85;1.83;;;26.00;51.60;;;;;;6215429;22;93597;-71
2023/06/28 08:46:53;;;;;;;6.47;0.95;;;26.00;49.50;;;;;;6216120;22;91927;-73
2023/06/28 08:49:19;;;;;;;4.82;1.67;;;26.00;50.20;;;;;;6215679;22;93536;-71
2023/06/28 08:51:46;;;;;;;11.27;2.22;;;26.10;48.50;;;;;;6215660;22;92901;-72
2023/06/28 08:54:13;;;;;;;6.20;1.42;;;26.10;49.10;;;;;;6215595;22;92400;-71
2023/06/28 08:56:39;;;;;;;6.25;1.70;;;26.00;49.20;;;;;;6216057;22;92461;-72
2023/06/28 08:59:06;;;;;;;9.73;1.60;;;25.90;47.50;;;;;;6215549;22;93154;-71
2023/06/28 09:01:33;;;;;;;8.05;1.63;;;25.60;48.00;;;;;;6215617;22;92729;-73
2023/06/28 09:04:00;;;;;;;6.03;1.92;;;25.80;48.90;;;;;;6215799;22;92306;-71
2023/06/28 09:06:28;;;;;;;5.80;1.83;;;26.10;47.60;;;;;;6216135;22;92329;-72
2023/06/28 09:08:54;;;;;;;3.90;1.45;;;26.60;47.80;;;;;;6215020;22;94007;-74
2023/06/28 09:11:20;;;;;;;6.63;1.13;;;27.50;45.80;;;;;;6215063;22;93161;-73
2023/06/28 09:13:46;;;;;;;7.47;1.40;;;29.70;44.20;;;;;;6215404;22;92315;-72
2023/06/28 09:16:12;;;;;;;8.63;2.17;;;31.20;42.50;;;;;;6215618;22;92423;-72
2023/06/28 09:18:37;;;;;;;9.00;2.65;;;32.10;39.40;;;;;;6214976;22;92513;-70
2023/06/28 09:21:04;;;;;;;5.05;2.45;;;34.10;37.80;;;;;;6215526;22;93392;-71
2023/06/28 09:23:32;;;;;;;5.68;2.53;;;35.30;35.30;;;;;;6215680;22;92805;-72
2023/06/28 09:25:58;;;;;;;6.35;2.63;;;35.70;35.80;;;;;;6216248;22;91870;-71
2023/06/28 09:28:34;;;;;;;4.10;3.30;;;36.80;37.70;;;;;;6213350;22;93118;-76
2023/06/28 09:31:01;;;;;;;15.60;2.13;;;37.90;36.40;;;;;;6212092;22;93334;-74
2023/06/28 09:33:27;;;;;;;9.45;2.83;;;36.00;34.70;;;;;;6212219;22;93453;-73
2023/06/28 09:35:55;;;;;;;6.22;2.78;;;34.10;33.60;;;;;;6215073;22;92259;-77
2023/06/28 09:38:21;;;;;;;9.80;2.72;;;32.10;36.50;;;;;;6214151;22;93183;-77
2023/06/28 09:41:00;;;;;;;7.70;2.22;;;32.80;37.20;;;;;;6213666;22;93597;-76
2023/06/28 09:43:34;;;;;;;6.40;3.30;;;34.60;35.60;;;;;;6212430;22;91969;-76
2023/06/28 09:46:17;;;;;;;4.40;3.20;;;36.30;35.70;;;;;;6214778;22;92459;-78
2023/06/28 09:48:45;;;;;;;11.07;3.95;;;36.10;36.30;;;;;;6213437;22;93980;-63
2023/06/28 09:51:11;;;;;;;7.50;4.82;;;35.10;33.60;;;;;;6214665;22;94122;-62
2023/06/28 09:53:54;;;;;;;5.80;3.15;;;36.20;34.40;;;;;;6213430;22;92619;-62
2023/06/28 09:56:35;;;;;;;6.65;4.15;;;36.70;36.50;;;;;;6215399;22;92592;-62
2023/06/28 09:59:05;;;;;;;7.93;3.83;;;37.80;34.20;;;;;;6211846;22;93427;-62
2023/06/28 10:01:32;;;;;;;5.22;3.38;;;37.70;34.00;;;;;;6213568;22;95576;-62
2023/06/28 10:03:59;;;;;;;7.45;3.50;;;38.40;34.30;;;;;;6213662;22;92441;-61
2023/06/28 10:06:27;;;;;;;3.95;2.90;;;36.00;32.60;;;;;;6213609;22;92950;-62
2023/06/28 10:08:53;;;;;;;8.55;3.08;;;34.80;35.40;;;;;;6213357;22;94379;-65
2023/06/28 10:11:20;;;;;;;5.50;2.63;;;34.20;36.50;;;;;;6214569;22;92268;-68
2023/06/28 10:13:47;;;;;;;8.02;3.42;;;34.50;36.70;;;;;;6214800;22;92255;-66
2023/06/28 10:16:24;;;;;;;4.13;2.63;;;34.70;36.60;;;;;;6214824;22;91759;-63
2023/06/28 10:18:50;;;;;;;5.68;2.42;;;34.40;37.40;;;;;;6212512;22;92999;-65
2023/06/28 10:21:16;;;;;;;4.55;2.58;;;33.70;36.60;;;;;;6214321;22;93980;-64
2023/06/28 10:23:43;;;;;;;5.55;2.25;;;32.90;35.50;;;;;;6213337;22;93375;-66
2023/06/28 10:26:13;;;;;;;4.20;1.92;;;32.30;38.10;;;;;;6216108;22;92257;-59
2023/06/28 10:28:40;;;;;;;6.18;2.20;;;31.00;37.80;;;;;;6216166;22;93058;-58
2023/06/28 10:31:07;;;;;;;6.88;2.55;;;30.80;39.50;;;;;;6216121;22;94032;-57
2023/06/28 10:33:36;;;;;;;4.03;1.80;;;30.30;38.20;;;;;;6216035;22;92431;-58
2023/06/28 10:36:03;;;;;;;5.00;1.70;;;30.00;40.20;;;;;;6213892;22;92471;-57
2023/06/28 10:38:42;;;;;;;4.40;2.13;;;30.40;41.40;;;;;;6214172;22;93020;-57
2023/06/28 10:41:08;;;;;;;3.30;1.80;;;30.20;40.20;;;;;;6215136;22;94011;-56
2023/06/28 10:43:34;;;;;;;5.78;1.60;;;29.80;39.20;;;;;;6216650;22;92024;-56
2023/06/28 10:46:00;;;;;;;3.88;1.80;;;30.30;41.20;;;;;;6215653;22;92460;-57
2023/06/28 10:48:27;;;;;;;3.67;1.75;;;30.40;40.10;;;;;;6215478;22;93173;-56
2023/06/28 10:50:58;;;;;;;6.43;1.70;;;29.80;37.60;;;;;;6215470;22;94872;-54
2023/06/28 10:53:25;;;;;;;3.90;1.80;;;29.30;39.90;;;;;;6213878;22;92275;-54
2023/06/28 10:56:12;;;;;;;7.10;1.80;;;29.30;41.60;;;;;;6215699;22;92203;-56
2023/06/28 10:58:45;;;;;;;5.93;1.55;;;29.30;39.10;;;;;;6213332;22;93026;-56
2023/06/28 11:01:13;;;;;;;5.30;1.40;;;29.40;39.50;;;;;;6215363;22;94083;-54
2023/06/28 11:03:44;;;;;;;2.85;1.10;;;29.00;39.60;;;;;;6216149;22;92618;-54
2023/06/28 11:06:12;;;;;;;5.40;1.85;;;28.70;39.60;;;;;;6217136;22;91634;-54
2023/06/28 11:08:39;;;;;;;6.13;1.63;;;28.80;40.10;;;;;;6215218;22;94436;-56
2023/06/28 11:11:07;;;;;;;4.63;1.60;;;28.90;39.20;;;;;;6215872;22;93297;-55
2023/06/28 11:13:49;;;;;;;5.10;1.45;;;29.00;41.40;;;;;;6214572;22;93518;-72
2023/06/28 11:16:23;;;;;;;4.55;0.80;;;29.20;41.20;;;;;;6215381;22;92337;-71
2023/06/28 11:18:50;;;;;;;4.68;1.70;;;29.20;38.80;;;;;;6214703;22;93135;-72
2023/06/28 11:21:24;;;;;;;4.20;1.42;;;29.30;38.70;;;;;;6215621;22;92770;-70
2023/06/28 11:23:54;;;;;;;4.32;1.58;;;29.40;37.90;;;;;;6214275;22;94077;-70
2023/06/28 11:26:36;;;;;;;5.40;1.23;;;29.30;39.30;;;;;;6214607;22;92261;-70
2023/06/28 11:29:18;;;;;;;3.30;1.23;;;29.00;39.60;;;;;;6215868;22;93100;-71
2023/06/28 11:31:48;;;;;;;;;;;28.80;40.50;;;;;;6215520;22;92952;-70
2023/06/28 11:34:14;;;;;;;3.55;1.30;;;28.80;40.90;;;;;;6215193;22;91872;-72
2023/06/28 11:36:42;;;;;;;7.50;1.48;;;28.80;40.20;;;;;;6213404;22;92571;-72
2023/06/28 11:39:07;;;;;;;4.65;1.48;;;28.60;41.20;;;;;;6211885;22;93649;-70
2023/06/28 11:41:34;;;;;;;4.15;1.42;;;28.40;42.80;;;;;;6213219;22;93591;-70
2023/06/28 11:44:05;;;;;;;6.90;1.10;;;28.60;40.60;;;;;;6214007;22;92014;-70
2023/06/28 11:46:33;;;;;;;3.92;1.33;;;28.50;39.90;;;;;;6214232;22;92357;-70
2023/06/28 11:49:00;;;;;;;4.00;1.30;;;28.40;41.80;;;;;;6213805;22;93512;-70
2023/06/28 11:51:26;;;;;;;4.65;1.13;;;28.30;41.40;;;;;;6213312;22;92536;-71
2023/06/28 11:53:55;;;;;;;4.68;1.10;;;28.20;40.00;;;;;;6213408;22;92886;-73
2023/06/28 11:56:41;;;;;;;5.13;1.02;;;28.10;41.30;;;;;;6214374;22;91697;-71
2023/06/28 11:59:17;;;;;;;3.35;1.25;;;28.20;41.00;;;;;;6213261;22;93263;-70
2023/06/28 12:01:46;;;;;;;4.88;1.45;;;28.30;40.20;;;;;;6211170;22;94618;-71
2023/06/28 12:04:21;;;;;;;6.93;1.23;;;28.60;42.20;;;;;;6212131;22;93403;-70
2023/06/28 12:06:53;;;;;;;4.60;1.38;;;29.00;40.00;;;;;;6213625;22;92447;-71
2023/06/28 12:09:29;;;;;;;2.20;1.10;;;29.50;42.60;;;;;;6213102;22;93079;-71
2023/06/28 12:11:59;;;;;;;4.63;1.42;;;29.80;42.10;;;;;;6212032;22;92846;-71
2023/06/28 12:14:29;;;;;;;5.88;1.30;;;30.00;39.90;;;;;;6212708;22;92441;-71
2023/06/28 12:16:56;;;;;;;2.42;1.15;;;30.00;40.10;;;;;;6211596;22;92365;-72
2023/06/28 12:19:32;;;;;;;4.90;1.20;;;29.80;41.00;;;;;;6209273;22;93066;-71
2023/06/28 12:22:02;;;;;;;13.43;2.08;;;29.90;42.60;;;;;;6211914;22;92745;-72
2023/06/28 12:24:28;;;;;;;7.55;1.50;;;29.90;42.30;;;;;;6211159;22;92295;-70
2023/06/28 12:26:56;;;;;;;6.40;1.45;;;29.60;40.90;;;;;;6213117;22;92344;-71
2023/06/28 12:29:25;;;;;;;3.08;1.23;;;29.40;40.90;;;;;;6210993;22;93564;-73
2023/06/28 12:31:54;;;;;;;5.45;1.15;;;29.30;43.00;;;;;;6210890;22;93036;-74
2023/06/28 12:34:25;;;;;;;5.93;1.50;;;29.20;42.90;;;;;;6210737;22;92422;-70
2023/06/28 12:37:03;;;;;;;5.13;1.67;;;29.10;41.10;;;;;;6212636;22;92171;-69
2023/06/28 12:39:31;;;;;;;6.10;1.88;;;28.90;40.60;;;;;;6212569;22;94003;-71
2023/06/28 12:42:01;;;;;;;5.03;1.73;;;28.70;42.90;;;;;;6212417;22;93472;-70
2023/06/28 12:44:28;;;;;;;4.65;1.27;;;28.70;42.00;;;;;;6213375;22;92841;-70
2023/06/28 12:46:53;;;;;;;6.65;1.15;;;28.70;42.10;;;;;;6211692;22;91956;-72
2023/06/28 12:49:19;;;;;;;2.83;0.90;;;28.70;43.80;;;;;;6212627;22;92900;-70
2023/06/28 12:51:44;;;;;;;3.53;1.42;;;28.90;42.20;;;;;;6212538;22;93177;-73
2023/06/28 12:54:12;;;;;;;6.53;1.30;;;29.00;42.70;;;;;;6212498;22;94319;-71
2023/06/28 12:56:37;;;;;;;4.82;1.33;;;29.10;42.80;;;;;;6213377;22;92431;-71
2023/06/28 12:59:03;;;;;;;4.13;1.30;;;28.80;43.10;;;;;;6212560;22;93749;-70
2023/06/28 13:01:29;;;;;;;5.07;1.42;;;28.90;41.10;;;;;;6213005;22;92329;-71
2023/06/28 13:03:55;;;;;;;6.05;1.55;;;28.80;42.30;;;;;;6212801;22;92351;-71
2023/06/28 13:06:22;;;;;;;5.43;1.30;;;28.70;43.40;;;;;;6213691;22;92110;-71
2023/06/28 13:08:48;;;;;;;6.75;1.70;;;28.50;40.40;;;;;;6212960;22;92361;-71
2023/06/28 13:11:13;;;;;;;4.40;1.50;;;28.50;42.10;;;;;;6214841;22;92656;-72
2023/06/28 13:13:39;;;;;;;3.70;1.35;;;28.50;42.60;;;;;;6215084;22;92240;-70
2023/06/28 13:16:06;;;;;;;6.57;1.65;;;28.80;44.10;;;;;;6212112;22;92364;-71
2023/06/28 13:18:31;;;;;;;5.07;1.70;;;29.10;43.50;;;;;;6213691;22;93306;-73
2023/06/28 13:20:57;;;;;;;7.05;1.52;;;29.10;42.40;;;;;;6215216;22;93215;-71
2023/06/28 13:23:23;;;;;;;4.15;1.75;;;28.90;43.80;;;;;;6213454;22;92570;-71
2023/06/28 13:25:48;;;;;;;9.70;1.80;;;28.90;43.70;;;;;;6215390;22;92514;-70
2023/06/28 13:28:14;;;;;;;6.68;1.58;;;28.90;43.70;;;;;;6214554;22;93689;-70
2023/06/28 13:30:40;;;;;;;3.95;1.40;;;29.00;42.30;;;;;;6213684;22;92427;-71
2023/06/28 13:33:05;;;;;;;4.70;1.70;;;29.00;42.70;;;;;;6214843;22;92398;-70
2023/06/28 13:35:31;;;;;;;6.45;1.88;;;29.20;43.50;;;;;;6214894;22;91683;-72
2023/06/28 13:37:57;;;;;;;4.80;1.50;;;29.20;42.10;;;;;;6213381;22;93370;-71
2023/06/28 13:40:22;;;;;;;5.88;1.42;;;29.10;42.50;;;;;;6212720;22;92835;-71
2023/06/28 13:42:48;;;;;;;5.20;1.50;;;29.20;41.10;;;;;;6214215;22;93214;-70
2023/06/28 13:45:14;;;;;;;5.45;1.42;;;29.30;43.50;;;;;;6214856;22;92717;-71
2023/06/28 13:47:40;;;;;;;3.60;1.50;;;29.50;41.80;;;;;;6214529;22;93083;-71
2023/06/28 13:50:06;;;;;;;4.95;1.58;;;29.40;40.20;;;;;;6213048;22;92746;-72
2023/06/28 13:52:32;;;;;;;6.28;1.80;;;29.30;41.00;;;;;;6211966;22;92654;-72
2023/06/28 13:54:57;;;;;;;2.53;1.27;;;29.40;41.30;;;;;;6214760;22;92545;-73
2023/06/28 13:57:24;;;;;;;4.30;1.40;;;29.30;40.60;;;;;;6214282;22;92513;-71
2023/06/28 13:59:50;;;;;;;4.10;2.05;;;29.30;40.80;;;;;;6214239;22;92751;-72
2023/06/28 14:02:16;;;;;;;4.47;1.90;;;29.60;40.80;;;;;;6213639;22;92390;-70
2023/06/28 14:04:42;;;;;;;5.22;1.67;;;29.40;39.10;;;;;;6215787;22;92410;-71
2023/06/28 14:07:08;;;;;;;3.92;1.50;;;29.10;40.50;;;;;;6214041;22;93442;-72
2023/06/28 14:09:35;;;;;;;3.17;1.35;;;28.90;39.70;;;;;;6208379;22;93114;-71
2023/06/28 14:12:00;;;;;;;5.97;0.80;;;28.70;40.90;;;;;;6210763;22;92554;-71
2023/06/28 14:14:26;;;;;;;2.42;1.00;;;28.60;42.90;;;;;;6214774;22;92246;-70
2023/06/28 14:16:52;;;;;;;4.05;0.90;;;28.70;41.40;;;;;;6214270;22;93754;-70
2023/06/28 14:19:18;;;;;;;3.65;1.13;;;28.60;41.50;;;;;;6213609;22;92400;-70
2023/06/28 14:21:43;;;;;;;3.88;1.10;;;28.40;41.30;;;;;;6210683;22;92853;-70
2023/06/28 14:24:10;;;;;;;7.57;1.15;;;28.30;41.30;;;;;;6212717;22;91594;-70
2023/06/28 14:26:36;;;;;;;3.05;0.63;;;28.10;42.70;;;;;;6210140;22;93657;-72
2023/06/28 14:29:05;;;;;;;2.90;1.70;;;27.90;41.20;;;;;;6212658;22;92817;-69
2023/06/28 14:31:31;;;;;;;4.07;1.50;;;27.80;44.10;;;;;;6214443;22;93342;-70
2023/06/28 14:33:57;;;;;;;3.75;1.02;;;27.80;44.80;;;;;;6212718;22;92680;-69
2023/06/28 14:36:23;;;;;;;4.13;1.10;;;27.70;42.80;;;;;;6211812;22;92835;-71
2023/06/28 14:38:49;;;;;;;4.97;1.65;;;27.50;43.00;;;;;;6214126;22;92337;-70
2023/06/28 14:41:14;;;;;;;5.38;1.63;;;27.40;42.80;;;;;;6215042;22;92420;-70
2023/06/28 14:43:40;;;;;;;6.20;1.35;;;27.00;42.90;;;;;;6215391;22;92383;-70
2023/06/28 14:46:06;;;;;;;3.35;0.93;;;27.10;43.60;;;;;;6213189;22;92612;-70
2023/06/28 14:48:32;;;;;;;5.40;1.50;;;27.10;42.00;;;;;;6212687;22;93148;-70
2023/06/28 14:50:58;;;;;;;5.57;1.33;;;27.20;44.10;;;;;;6214197;22;92258;-71
2023/06/28 14:53:23;;;;;;;3.85;1.10;;;27.60;45.30;;;;;;6187644;22;92123;-71
2023/06/28 14:55:49;;;;;;;4.13;1.17;;;28.00;44.30;;;;;;6212354;22;93373;-70
2023/06/28 14:58:15;;;;;;;4.90;1.10;;;28.20;44.20;;;;;;6214006;22;94619;-72
2023/06/28 15:00:40;;;;;;;2.78;1.25;;;28.30;43.30;;;;;;6211921;22;92298;-71
2023/06/28 15:03:09;;;;;;;3.10;1.40;;;28.30;41.90;;;;;;6213105;22;92453;-70
2023/06/28 15:05:35;;;;;;;;;;;28.30;41.70;;;;;;6214657;22;92539;-70
2023/06/28 15:08:02;;;;;;;3.45;1.27;;;28.30;42.60;;;;;;6216490;22;93126;-71
2023/06/28 15:10:27;;;;;;;4.60;1.48;;;28.20;43.00;;;;;;6215575;22;92368;-70
2023/06/28 15:12:53;;;;;;;6.50;1.40;;;28.20;42.30;;;;;;6217408;22;91490;-72
2023/06/28 15:15:19;;;;;;;5.45;0.70;;;28.10;42.40;;;;;;6216193;22;92893;-72
2023/06/28 15:17:44;;;;;;;23.70;3.88;;;28.10;43.50;;;;;;6215442;22;92309;-70
2023/06/28 15:20:11;;;;;;;21.50;3.33;;;28.30;42.70;;;;;;6215669;22;93288;-71
2023/06/28 15:22:36;;;;;;;75.63;6.35;;;28.20;42.90;;;;;;6216919;22;92312;-72
2023/06/28 15:25:02;;;;;;;10.77;1.80;;;28.00;43.10;;;;;;6215871;22;93440;-70
2023/06/28 15:27:28;;;;;;;4.57;1.08;;;28.10;43.30;;;;;;6189086;22;92729;-70
2023/06/28 15:29:54;;;;;;;18.60;3.58;;;27.90;43.10;;;;;;6215976;22;92441;-70
2023/06/28 15:32:20;;;;;;;3.33;1.30;;;27.90;43.70;;;;;;6217248;22;92474;-70
2023/06/28 15:34:46;;;;;;;4.32;2.03;;;27.90;43.90;;;;;;6215016;22;92659;-70
2023/06/28 15:37:12;;;;;;;4.68;1.35;;;28.00;43.20;;;;;;6216045;22;92126;-70
2023/06/28 15:39:37;;;;;;;3.67;1.40;;;28.00;44.70;;;;;;6216354;22;92178;-71
2023/06/28 15:42:04;;;;;;;3.47;0.75;;;27.90;42.10;;;;;;6189669;22;92288;-71
2023/06/28 15:44:29;;;;;;;6.75;1.20;;;27.70;42.80;;;;;;6214812;22;94181;-71
2023/06/28 15:46:55;;;;;;;8.80;0.82;;;27.40;43.60;;;;;;6215964;22;93278;-71
2023/06/28 15:49:23;;;;;;;3.38;1.13;;;27.30;44.50;;;;;;6216765;22;92075;-70
2023/06/28 15:51:49;;;;;;;4.10;1.13;;;27.30;44.40;;;;;;6216154;22;92261;-71
2023/06/28 15:54:14;;;;;;;3.97;1.00;;;27.30;43.90;;;;;;6216008;22;93047;-71
2023/06/28 15:56:41;;;;;;;3.65;1.35;;;27.30;45.20;;;;;;6215723;22;92289;-71
2023/06/28 15:59:07;;;;;;;6.13;1.05;;;27.10;45.00;;;;;;6216172;22;92576;-70
2023/06/28 16:01:33;;;;;;;4.53;0.90;;;27.20;44.40;;;;;;6216726;22;91820;-70